createdAt,value
2022-10-07T00:04:58.536Z,8.67
2022-10-07T00:10:00.039Z,8.57
2022-10-07T00:15:01.510Z,8.56
2022-10-07T00:20:03.303Z,8.43
2022-10-07T00:25:05.147Z,8.37
2022-10-07T00:30:07.138Z,8.27
2022-10-07T00:35:08.807Z,8.33
2022-10-07T00:40:12.867Z,8.37
2022-10-07T00:45:16.916Z,8.29
2022-10-07T00:50:27.712Z,8.19
2022-10-07T00:55:31.613Z,8.07
2022-10-07T01:00:33.120Z,8.08
2022-10-07T01:05:34.659Z,8.18
2022-10-07T01:10:51.390Z,8.06
2022-10-07T01:16:13.801Z,7.94
2022-10-07T01:21:39.167Z,7.96
2022-10-07T01:27:09.453Z,7.98
2022-10-07T01:32:19.901Z,8.05
2022-10-07T01:37:24.089Z,8.03
2022-10-07T01:42:26.325Z,8.02
2022-10-07T01:47:28.607Z,7.99
2022-10-07T01:52:45.725Z,7.93
2022-10-07T01:57:47.367Z,7.68
2022-10-07T02:03:07.651Z,7.69
2022-10-07T02:08:44.038Z,7.68
2022-10-07T02:14:08.232Z,7.61
2022-10-07T02:19:20.240Z,7.56
2022-10-07T02:24:25.795Z,7.48
2022-10-07T02:29:32.957Z,7.34
2022-10-07T02:34:35.830Z,7.29
2022-10-07T02:39:37.668Z,7.27
2022-10-07T02:44:47.239Z,7.20
2022-10-07T02:49:53.514Z,7.01
2022-10-07T02:54:58.192Z,6.84
2022-10-07T03:00:03.572Z,6.82
2022-10-07T03:05:16.320Z,6.88
2022-10-07T03:10:18.300Z,6.91
2022-10-07T03:15:19.899Z,6.90
2022-10-07T03:20:22.187Z,6.88
2022-10-07T03:25:25.552Z,7.00
2022-10-07T03:30:28.677Z,6.95
2022-10-07T03:35:30.330Z,6.97
2022-10-07T03:40:32.298Z,6.89
2022-10-07T03:45:33.917Z,7.01
2022-10-07T03:50:35.661Z,7.13
2022-10-07T03:55:37.369Z,7.22
2022-10-07T04:00:39.439Z,7.15
2022-10-07T04:05:41.651Z,7.05
2022-10-07T04:10:43.243Z,6.96
2022-10-07T04:15:45.060Z,6.92
2022-10-07T04:20:47.107Z,7.08
2022-10-07T04:25:48.725Z,6.99
2022-10-07T04:30:53.484Z,6.85
2022-10-07T04:36:05.812Z,6.87
2022-10-07T04:41:08.112Z,6.88
2022-10-07T04:46:12.272Z,6.85
2022-10-07T04:51:17.891Z,6.82
2022-10-07T04:56:23.301Z,6.72
2022-10-07T05:01:25.050Z,6.75
2022-10-07T05:06:26.664Z,6.79
2022-10-07T05:11:28.316Z,6.91
2022-10-07T05:16:36.152Z,6.88
2022-10-07T05:21:39.088Z,6.92
2022-10-07T05:26:40.685Z,6.75
2022-10-07T05:31:43.905Z,6.86
2022-10-07T05:36:47.777Z,6.85
2022-10-07T05:41:49.352Z,6.82
2022-10-07T05:46:54.238Z,6.86
2022-10-07T05:51:56.822Z,6.85
2022-10-07T05:56:58.801Z,6.72
2022-10-07T06:02:00.803Z,6.75
2022-10-07T06:07:03.437Z,6.94
2022-10-07T06:12:05.234Z,7.11
2022-10-07T06:17:08.312Z,7.27
2022-10-07T06:22:10.590Z,7.38
2022-10-07T06:27:14.141Z,7.45
2022-10-07T06:32:16.888Z,7.61
2022-10-07T06:37:19.292Z,7.89
2022-10-07T06:42:20.912Z,8.20
2022-10-07T06:47:54.217Z,9.12
2022-10-07T06:52:57.456Z,9.81
2022-10-07T06:58:00.879Z,10.79
2022-10-07T07:03:02.734Z,10.66
2022-10-07T07:08:05.125Z,11.26
2022-10-07T07:13:06.967Z,11.29
2022-10-07T07:18:10.172Z,11.60
2022-10-07T07:23:12.838Z,11.37
2022-10-07T07:28:16.432Z,11.76
2022-10-07T07:33:19.202Z,11.30
2022-10-07T07:38:24.749Z,12.24
2022-10-07T07:43:28.147Z,12.36
2022-10-07T07:48:30.129Z,13.54
2022-10-07T07:53:31.875Z,13.66
2022-10-07T07:58:33.713Z,13.39
2022-10-07T08:03:36.556Z,13.93
2022-10-07T08:08:39.566Z,13.90
2022-10-07T08:13:41.583Z,13.80
2022-10-07T08:18:48.594Z,14.47
2022-10-07T08:23:58.941Z,14.40
2022-10-07T08:29:05.077Z,14.88
2022-10-07T08:34:06.900Z,15.46
2022-10-07T08:39:09.675Z,15.77
2022-10-07T08:44:16.658Z,15.39
2022-10-07T08:49:30.198Z,14.84
2022-10-07T08:54:31.796Z,16.06
2022-10-07T08:59:34.660Z,16.12
2022-10-07T09:04:57.653Z,17.26
2022-10-07T09:10:23.890Z,17.69
2022-10-07T09:15:31.465Z,16.31
2022-10-07T09:20:43.050Z,17.76
2022-10-07T09:25:44.648Z,17.77
2022-10-07T09:30:46.225Z,17.68
2022-10-07T09:35:57.470Z,18.86
2022-10-07T09:41:15.802Z,19.04
2022-10-07T09:46:34.040Z,18.45
2022-10-07T09:51:35.653Z,17.46
2022-10-07T09:56:43.956Z,19.51
2022-10-07T10:02:02.236Z,20.07
2022-10-07T10:07:18.512Z,20.82
2022-10-07T10:12:21.701Z,21.01
2022-10-07T10:17:39.581Z,21.07
2022-10-07T10:22:41.118Z,20.17
2022-10-07T10:27:53.272Z,20.16
2022-10-07T10:32:57.623Z,20.90
2022-10-07T10:38:34.062Z,22.28
2022-10-07T10:43:53.925Z,23.12
2022-10-07T10:49:01.139Z,23.10
2022-10-07T10:54:24.300Z,22.55
2022-10-07T10:59:48.251Z,20.97
2022-10-07T11:04:58.290Z,22.19
2022-10-07T11:10:05.442Z,22.05
2022-10-07T11:15:22.094Z,21.11
2022-10-07T11:20:41.021Z,21.82
2022-10-07T11:25:57.286Z,23.06
2022-10-07T11:31:30.366Z,23.30
2022-10-07T11:36:50.765Z,24.12
2022-10-07T11:42:01.163Z,24.31
2022-10-07T11:47:06.098Z,23.77
2022-10-07T11:52:27.393Z,24.64
2022-10-07T11:57:32.798Z,24.34
2022-10-07T12:02:44.316Z,23.75
2022-10-07T12:07:58.661Z,23.52
2022-10-07T12:13:10.479Z,23.19
2022-10-07T12:18:11.897Z,23.80
2022-10-07T12:23:19.743Z,22.92
2022-10-07T12:28:47.185Z,22.16
2022-10-07T12:34:07.280Z,23.57
2022-10-07T12:39:08.719Z,22.76
2022-10-07T12:49:50.093Z,23.60
2022-10-07T12:54:56.699Z,23.41
2022-10-07T13:00:17.600Z,23.85
2022-10-07T13:05:19.063Z,23.32
2022-10-07T13:10:45.073Z,23.59
2022-10-07T13:15:58.099Z,22.98
2022-10-07T13:21:14.339Z,23.46
2022-10-07T13:26:15.858Z,23.37
2022-10-07T13:31:23.307Z,22.22
2022-10-07T13:36:29.111Z,21.99
2022-10-07T13:41:30.733Z,21.17
2022-10-07T13:46:36.055Z,21.44
2022-10-07T13:51:41.231Z,21.60
2022-10-07T13:56:43.596Z,21.49
2022-10-07T14:01:51.723Z,22.37
2022-10-07T14:06:56.015Z,22.42
2022-10-07T14:17:47.162Z,22.54
2022-10-07T14:22:52.137Z,23.23
2022-10-07T14:27:56.690Z,23.56
2022-10-07T14:33:12.392Z,22.36
2022-10-07T14:38:26.313Z,22.10
2022-10-07T14:43:31.865Z,22.99
2022-10-07T14:48:33.466Z,22.12
2022-10-07T14:53:36.564Z,21.59
2022-10-07T14:58:38.133Z,21.40
2022-10-07T15:03:39.703Z,21.54
2022-10-07T15:08:41.205Z,21.81
2022-10-07T15:13:42.966Z,22.17
2022-10-07T15:18:49.548Z,22.11
2022-10-07T15:23:54.145Z,21.55
2022-10-07T15:28:57.248Z,21.73
2022-10-07T15:33:58.776Z,21.93
2022-10-07T15:39:00.651Z,20.70
2022-10-07T15:44:07.580Z,20.12
2022-10-07T15:49:09.326Z,19.74
2022-10-07T15:54:10.890Z,19.48
2022-10-07T15:59:12.392Z,19.26
2022-10-07T16:04:14.005Z,18.99
2022-10-07T16:09:15.508Z,18.95
2022-10-07T16:14:17.094Z,18.88
2022-10-07T16:19:18.607Z,18.79
2022-10-07T16:24:21.529Z,18.53
2022-10-07T16:29:23.571Z,18.07
2022-10-07T16:34:25.763Z,17.73
2022-10-07T16:39:27.265Z,17.53
2022-10-07T16:44:29.003Z,17.10
2022-10-07T16:49:30.609Z,16.71
2022-10-07T16:54:32.143Z,16.47
2022-10-07T16:59:33.652Z,16.41
2022-10-07T17:04:35.142Z,16.34
2022-10-07T17:09:36.625Z,16.40
2022-10-07T17:14:38.135Z,16.40
2022-10-07T17:19:39.617Z,16.33
2022-10-07T17:24:41.108Z,15.79
2022-10-07T17:29:42.580Z,15.41
2022-10-07T17:34:45.513Z,15.00
2022-10-07T17:39:47.188Z,15.02
2022-10-07T17:44:48.679Z,14.94
2022-10-07T17:49:50.212Z,14.89
2022-10-07T17:54:52.085Z,14.53
2022-10-07T17:59:53.695Z,14.41
2022-10-07T18:04:55.427Z,14.40
2022-10-07T18:09:56.960Z,14.78
2022-10-07T18:14:58.541Z,15.30
2022-10-07T18:20:00.021Z,15.42
2022-10-07T18:25:01.955Z,15.28
2022-10-07T18:30:04.110Z,15.34
2022-10-07T18:35:05.785Z,15.36
2022-10-07T18:40:07.850Z,15.42
2022-10-07T18:45:09.530Z,15.51
2022-10-07T18:50:11.153Z,15.39
2022-10-07T18:55:12.714Z,15.30
2022-10-07T19:00:14.776Z,15.17
2022-10-07T19:05:16.403Z,15.00
2022-10-07T19:10:18.071Z,15.03
2022-10-07T19:15:19.765Z,14.94
2022-10-07T19:20:21.249Z,14.66
2022-10-07T19:25:22.742Z,14.75
2022-10-07T19:30:24.341Z,14.87
2022-10-07T19:35:25.855Z,14.96
2022-10-07T19:40:27.409Z,14.86
2022-10-07T19:45:29.034Z,14.82
2022-10-07T19:50:31.480Z,14.65
2022-10-07T19:55:33.715Z,14.44
2022-10-07T20:00:35.363Z,14.23
2022-10-07T20:05:38.355Z,14.13
2022-10-07T20:10:40.013Z,14.14
2022-10-07T20:15:41.503Z,14.12
2022-10-07T20:20:43.101Z,13.94
2022-10-07T20:25:44.600Z,13.92
2022-10-07T20:30:46.117Z,13.86
2022-10-07T20:35:47.606Z,13.79
2022-10-07T20:40:52.531Z,13.50
2022-10-07T20:45:54.434Z,13.52
2022-10-07T20:50:55.996Z,13.56
2022-10-07T20:56:02.517Z,13.46
2022-10-07T21:01:06.209Z,13.11
2022-10-07T21:06:08.097Z,12.94
2022-10-07T21:11:09.735Z,12.80
2022-10-07T21:16:11.433Z,12.64
2022-10-07T21:21:13.350Z,12.46
2022-10-07T21:26:15.646Z,12.32
2022-10-07T21:31:20.100Z,12.16
2022-10-07T21:36:23.329Z,11.96
2022-10-07T21:41:27.821Z,11.73
2022-10-07T21:46:30.785Z,11.57
2022-10-07T21:51:32.639Z,11.34
2022-10-07T21:56:34.408Z,11.44
2022-10-07T22:01:36.007Z,11.26
2022-10-07T22:06:37.606Z,11.09
2022-10-07T22:11:39.625Z,10.89
2022-10-07T22:16:41.316Z,10.75
2022-10-07T22:21:43.222Z,10.78
2022-10-07T22:26:46.952Z,10.77
2022-10-07T22:31:48.904Z,10.60
2022-10-07T22:36:50.404Z,10.49
2022-10-07T22:41:51.987Z,10.42
2022-10-07T22:46:54.620Z,10.41
2022-10-07T22:51:56.204Z,10.35
2022-10-07T22:56:57.755Z,10.38
2022-10-07T23:01:59.296Z,10.30
2022-10-07T23:07:00.792Z,10.07
2022-10-07T23:12:02.586Z,9.89
2022-10-07T23:17:05.215Z,9.96
2022-10-07T23:22:06.709Z,10.16
2022-10-07T23:27:08.334Z,10.13
2022-10-07T23:32:09.874Z,10.06
2022-10-07T23:37:11.341Z,10.02
2022-10-07T23:42:14.073Z,9.84
2022-10-07T23:47:15.565Z,9.64
2022-10-07T23:52:17.086Z,9.70
2022-10-07T23:57:18.597Z,9.62
